Nearby METAR Reports

 

KMNN - Marion, Ohio, USA
Distance from station: ENE 4mi, 6km
Updated: 01/19/2022 12:53pm
Overcast
Overcast
 Wind from WSW
Wind: WSW 13 mph , 20 km/h
Temperature: 43°F , 6°C
Wind Chill: 36°F , 2°C
Dew Point: 34°F , 1°C
Humidity: 71%
Barometer: 29.90 inHg , 1012.5 hPa
Clouds: Overcast
Visibility: 9 miles , 14 km
Cloud details: Overcast 11000 ft
2022/01/19 17:53 KMNN 191753Z AUTO 24011KT 9SM OVC110 06/01 A2990 RMK AO2 SLP136 T00610011 10061 20033 50006
KDLZ - Delaware, Ohio, USA
Distance from station: S 21mi, 34km
Updated: 01/19/2022 1:35pm
Clear
Clear
 Wind from WSW
Wind: WSW 8 mph , 13 km/h
Temperature: 43°F , 6°C
Wind Chill: 38°F , 3°C
Dew Point: 32°F , 0°C
Humidity: 66%
Barometer: 29.92 inHg , 1013.2 hPa
Clouds: Clear
Visibility: 10 miles , 16 km
2022/01/19 18:35 KDLZ 191835Z AUTO 24007KT 10SM CLR 06/00 A2992 RMK AO2
 
KMRT - Marysville, Ohio, USA
Distance from station: SSW 28mi, 45km
Updated: 01/19/2022 1:35pm
Clear
Clear
 Wind from W
Wind: W 16 mph , 26 km/h
Temperature: 45°F , 7°C
Wind Chill: 38°F , 3°C
Dew Point: 34°F , 1°C
Humidity: 66%
Barometer: 29.93 inHg , 1013.5 hPa
Clouds: Clear
Visibility: 10 miles , 16 km
2022/01/19 18:35 KMRT 191835Z AUTO 26014KT 10SM CLR 07/01 A2993 RMK AO2 T00650014
KOSU - Columbus/St Univ, Ohio, USA
Distance from station: S 35mi, 56km
Updated: 01/19/2022 12:53pm
Clear
Clear
 Wind from WSW
Wind: WSW 13 mph , 20 km/h
Temperature: 46°F , 8°C
Wind Chill: 40°F , 4°C
Dew Point: 36°F , 2°C
Humidity: 66%
Barometer: 29.93 inHg , 1013.5 hPa
Clouds: Clear
Visibility: 10 miles , 16 km
2022/01/19 17:53 KOSU 191753Z 24011KT 10SM CLR 08/02 A2993 RMK AO2 SLP142 T00780017 10078 20039 58002
 
KMFD - Mansfield, Ohio, USA
Distance from station: ENE 36mi, 57km
Updated: 01/19/2022 1:29pm
Overcast
Overcast
 Wind from SW
Wind: SW 15 mph , 24 km/h, Gust: 25 mph , 41 km/h
Temperature: 41°F , 5°C
Wind Chill: 33°F , 1°C
Dew Point: 34°F , 1°C
Humidity: 76%
Barometer: 29.88 inHg , 1011.9 hPa
Clouds: Overcast
Visibility: 10 miles , 16 km
Cloud details: Few Clouds 2000 ft
Overcast 11000 ft
2022/01/19 18:29 KMFD 191829Z 22013G22KT 10SM FEW020 OVC110 05/01 A2988 RMK AO2 T00500006
K4I3 - Mt Vernon/Knox, Ohio, USA
Distance from station: ESE 36mi, 58km
Updated: 01/19/2022 1:35pm
Clear
Clear
 Wind from SW
Wind: SW 8 mph , 13 km/h, Gust: 17 mph , 28 km/h
Temperature: 43°F , 6°C
Wind Chill: 38°F , 3°C
Dew Point: 34°F , 1°C
Humidity: 71%
Barometer: 29.92 inHg , 1013.2 hPa
Clouds: Clear
Visibility: 10 miles , 16 km
2022/01/19 18:35 K4I3 191835Z AUTO 23007G15KT 10SM CLR 06/01 A2992 RMK AO2
 
KEDJ - Bellefontaine, Ohio, USA
Distance from station: WSW 39mi, 63km
Updated: 01/19/2022 1:35pm
Clear
Clear
 Wind from W
Wind: W 14 mph , 22 km/h, Gust: 22 mph , 35 km/h
Temperature: 45°F , 7°C
Wind Chill: 39°F , 4°C
Dew Point: 34°F , 1°C
Humidity: 66%
Barometer: 29.93 inHg , 1013.5 hPa
Clouds: Clear
Visibility: 10 miles , 16 km
2022/01/19 18:35 KEDJ 191835Z AUTO 28012G19KT 10SM CLR 07/01 A2993 RMK A01
KFDY - Findlay, Ohio, USA
Distance from station: NW 41mi, 66km
Updated: 01/19/2022 12:53pm
Mostly cloudy
Mostly cloudy
 Wind from W
Wind: W 21 mph , 33 km/h, Gust: 28 mph , 44 km/h
Temperature: 45°F , 7°C
Wind Chill: 37°F , 3°C
Dew Point: 28°F , -2°C
Humidity: 53%
Barometer: 29.90 inHg , 1012.5 hPa
Clouds: Mostly cloudy
Visibility: 10 miles , 16 km
Cloud details: Mostly cloudy 12000 ft
2022/01/19 17:53 KFDY 191753Z AUTO 26018G24KT 10SM BKN120 07/M02 A2990 RMK AO2 SLP125 T00671022 10083 20056 51014
 
KCMH - Columbus, Ohio, USA
Distance from station: SSE 43mi, 69km
Updated: 01/19/2022 1:51pm
Overcast
Overcast
 Wind from SW
Wind: SW 10 mph , 17 km/h
Temperature: 46°F , 8°C
Wind Chill: 41°F , 5°C
Dew Point: 36°F , 2°C
Humidity: 66%
Barometer: 29.93 inHg , 1013.5 hPa
Clouds: Overcast
Visibility: 10 miles , 16 km
Cloud details: Overcast 15000 ft
2022/01/19 18:51 KCMH 191851Z 23009KT 10SM OVC150 08/02 A2993 RMK AO2 SLP142 T00780022
KAOH - Lima, Ohio, USA
Distance from station: W 47mi, 76km
Updated: 01/19/2022 12:53pm
Few Clouds
Few Clouds
 Wind from W
Wind: W 20 mph , 31 km/h
Temperature: 43°F , 6°C
Wind Chill: 34°F , 1°C
Dew Point: 28°F , -2°C
Humidity: 57%
Barometer: 29.93 inHg , 1013.5 hPa
Clouds: Few Clouds
Visibility: 10 miles , 16 km
Cloud details: Few Clouds 11000 ft
2022/01/19 17:53 KAOH 191753Z AUTO 27017KT 10SM FEW110 06/M02 A2993 RMK AO2 SLP140 60000 T00561017 10072 20044 51014
 
KTZR - Columbus/Bolton, Ohio, USA
Distance from station: S 48mi, 77km
Updated: 01/19/2022 1:47pm
Partly cloudy
Partly cloudy
 Wind from SW
Wind: SW 10 mph , 17 km/h, Gust: 16 mph , 26 km/h
Temperature: 45°F , 7°C
Wind Chill: 40°F , 4°C
Dew Point: 36°F , 2°C
Humidity: 71%
Barometer: 29.94 inHg , 1013.9 hPa
Clouds: Partly cloudy
Visibility: 10 miles , 16 km
Cloud details: Partly cloudy 12000 ft
2022/01/19 18:47 KTZR 191847Z 22009G14KT 10SM SCT120 07/02 A2994
KUYF - London, Ohio, USA
Distance from station: SSW 49mi, 78km
Updated: 01/19/2022 1:35pm
Clear
Clear
 Wind from WSW
Wind: WSW 12 mph , 19 km/h
Temperature: 45°F , 7°C
Wind Chill: 39°F , 4°C
Dew Point: 36°F , 2°C
Humidity: 71%
Barometer: 29.92 inHg , 1013.2 hPa
Clouds: Clear
Visibility: 10 miles , 16 km
2022/01/19 18:35 KUYF 191835Z AUTO 25010KT 10SM CLR 07/02 A2992 RMK AO2